createdAt,value
2022-10-25T00:00:50.305Z,1.20
2022-10-25T00:03:38.683Z,1.40
2022-10-25T00:06:27.044Z,1.30
2022-10-25T00:09:15.431Z,1.50
2022-10-25T00:12:07.156Z,1.20
2022-10-25T00:14:56.846Z,1.10
2022-10-25T00:17:45.746Z,1.27
2022-10-25T00:20:34.270Z,1.20
2022-10-25T00:23:22.600Z,1.33
2022-10-25T00:26:11.470Z,1.23
2022-10-25T00:28:59.807Z,1.20
2022-10-25T00:31:49.476Z,1.23
2022-10-25T00:34:37.871Z,1.10
2022-10-25T00:37:26.248Z,1.30
2022-10-25T00:40:14.619Z,1.30
2022-10-25T00:43:02.960Z,1.33
2022-10-25T00:45:51.348Z,1.40
2022-10-25T00:48:41.165Z,1.37
2022-10-25T00:51:32.741Z,1.30
2022-10-25T00:54:26.910Z,1.20
2022-10-25T00:57:17.438Z,1.50
2022-10-25T01:00:07.317Z,1.30
2022-10-25T01:05:46.319Z,1.50
2022-10-25T01:08:34.675Z,1.33
2022-10-25T01:11:23.023Z,1.50
2022-10-25T01:14:13.162Z,1.37
2022-10-25T01:17:05.353Z,1.20
2022-10-25T01:20:29.369Z,1.60
2022-10-25T01:23:56.996Z,1.50
2022-10-25T01:27:07.290Z,1.53
2022-10-25T01:30:13.927Z,1.40
2022-10-25T01:33:11.500Z,1.43
2022-10-25T01:36:03.136Z,1.30
2022-10-25T01:38:55.453Z,1.30
2022-10-25T01:41:51.334Z,1.57
2022-10-25T01:44:45.302Z,1.50
2022-10-25T01:47:37.777Z,1.33
2022-10-25T01:50:29.171Z,1.80
2022-10-25T01:53:17.522Z,1.40
2022-10-25T01:56:06.159Z,1.30
2022-10-25T01:59:14.312Z,1.53
2022-10-25T02:02:05.629Z,1.40
2022-10-25T02:05:00.904Z,1.70
2022-10-25T02:07:56.008Z,1.33
2022-10-25T02:10:49.244Z,1.60
2022-10-25T02:13:45.156Z,1.60
2022-10-25T02:16:37.479Z,1.30
2022-10-25T02:19:29.293Z,1.60
2022-10-25T02:22:17.737Z,1.50
2022-10-25T02:25:09.346Z,1.67
2022-10-25T02:27:57.748Z,1.60
2022-10-25T02:30:46.116Z,1.50
2022-10-25T02:33:34.517Z,1.40
2022-10-25T02:36:23.863Z,1.70
2022-10-25T02:39:12.219Z,1.60
2022-10-25T02:42:02.738Z,1.57
2022-10-25T02:44:51.127Z,1.40
2022-10-25T02:47:39.489Z,1.80
2022-10-25T02:50:27.865Z,1.63
2022-10-25T02:53:16.204Z,1.40
2022-10-25T02:56:06.486Z,1.40
2022-10-25T02:58:57.638Z,1.60
2022-10-25T03:01:46.032Z,1.60
2022-10-25T03:04:34.509Z,1.50
2022-10-25T03:07:22.870Z,1.60
2022-10-25T03:10:11.356Z,1.77
2022-10-25T03:12:59.713Z,1.60
2022-10-25T03:15:49.546Z,1.67
2022-10-25T03:18:37.964Z,1.53
2022-10-25T03:21:26.740Z,1.60
2022-10-25T03:24:15.211Z,1.70
2022-10-25T03:27:03.571Z,1.40
2022-10-25T03:29:51.945Z,1.50
2022-10-25T03:32:41.753Z,2.00
2022-10-25T03:35:30.172Z,1.90
2022-10-25T03:38:18.519Z,1.37
2022-10-25T03:41:07.126Z,1.60
2022-10-25T03:43:55.483Z,1.60
2022-10-25T03:46:43.956Z,1.50
2022-10-25T03:49:33.637Z,1.80
2022-10-25T03:52:21.954Z,1.63
2022-10-25T03:55:10.921Z,1.80
2022-10-25T03:57:59.590Z,1.80
2022-10-25T04:00:47.990Z,1.80
2022-10-25T04:03:36.723Z,1.80
2022-10-25T04:06:26.550Z,1.63
2022-10-25T04:09:14.875Z,1.80
2022-10-25T04:12:03.342Z,1.80
2022-10-25T04:14:51.718Z,2.07
2022-10-25T04:17:40.054Z,2.17
2022-10-25T04:20:28.520Z,2.00
2022-10-25T04:23:18.187Z,1.87
2022-10-25T04:26:06.908Z,1.63
2022-10-25T04:28:56.495Z,1.80
2022-10-25T04:31:44.889Z,2.10
2022-10-25T04:34:33.207Z,1.50
2022-10-25T04:37:21.547Z,1.63
2022-10-25T04:40:12.993Z,1.70
2022-10-25T04:43:02.523Z,1.77
2022-10-25T04:45:51.109Z,1.80
2022-10-25T04:48:39.620Z,1.83
2022-10-25T04:51:28.024Z,1.70
2022-10-25T04:54:16.664Z,2.00
2022-10-25T04:57:07.151Z,2.30
2022-10-25T04:59:57.505Z,1.70
2022-10-25T05:02:46.244Z,2.00
2022-10-25T05:05:34.877Z,1.87
2022-10-25T05:08:23.220Z,1.50
2022-10-25T05:11:12.643Z,2.00
2022-10-25T05:14:02.311Z,1.80
2022-10-25T05:16:50.730Z,1.53
2022-10-25T05:19:39.063Z,1.90
2022-10-25T05:22:27.553Z,1.77
2022-10-25T05:25:16.105Z,1.70
2022-10-25T05:28:04.623Z,1.90
2022-10-25T05:30:54.512Z,1.93
2022-10-25T05:33:44.914Z,1.83
2022-10-25T05:36:33.423Z,2.00
2022-10-25T05:39:21.824Z,2.00
2022-10-25T05:42:10.148Z,1.80
2022-10-25T05:44:58.496Z,1.90
2022-10-25T05:47:48.162Z,2.13
2022-10-25T05:50:36.576Z,2.10
2022-10-25T05:53:24.946Z,1.73
2022-10-25T05:56:13.783Z,1.80
2022-10-25T05:59:07.541Z,1.90
2022-10-25T06:01:55.990Z,2.10
2022-10-25T06:04:25.549Z,1.97
2022-10-25T06:06:53.640Z,2.23
2022-10-25T06:09:21.840Z,1.97
2022-10-25T06:11:49.948Z,2.00
2022-10-25T06:14:17.974Z,1.90
2022-10-25T06:16:46.049Z,2.20
2022-10-25T06:19:14.095Z,2.00
2022-10-25T06:21:43.538Z,2.20
2022-10-25T06:24:11.808Z,2.23
2022-10-25T06:26:39.847Z,2.10
2022-10-25T06:29:07.861Z,2.00
2022-10-25T06:31:35.911Z,2.23
2022-10-25T06:34:04.147Z,1.90
2022-10-25T06:36:32.477Z,1.80
2022-10-25T06:39:05.513Z,2.07
2022-10-25T06:41:36.704Z,1.97
2022-10-25T06:44:06.785Z,2.10
2022-10-25T06:46:57.982Z,2.10
2022-10-25T06:49:24.939Z,2.03
2022-10-25T06:51:53.015Z,2.03
2022-10-25T06:54:22.516Z,2.20
2022-10-25T06:56:50.562Z,2.07
2022-10-25T06:59:20.318Z,2.37
2022-10-25T07:01:48.515Z,2.27
2022-10-25T07:04:16.907Z,2.10
2022-10-25T07:06:44.953Z,2.10
2022-10-25T07:09:13.320Z,2.40
2022-10-25T07:11:42.726Z,1.97
2022-10-25T07:14:11.738Z,2.10
2022-10-25T07:16:39.797Z,2.17
2022-10-25T07:19:08.602Z,2.07
2022-10-25T07:21:36.658Z,2.13
2022-10-25T07:24:05.128Z,2.20
2022-10-25T07:26:34.784Z,2.20
2022-10-25T07:29:04.998Z,2.07
2022-10-25T07:31:34.436Z,2.60
2022-10-25T07:34:04.054Z,2.10
2022-10-25T07:36:32.265Z,2.00
2022-10-25T07:39:00.746Z,2.33
2022-10-25T07:41:28.793Z,1.80
2022-10-25T07:43:56.935Z,2.10
2022-10-25T07:46:26.369Z,1.80
2022-10-25T07:48:54.459Z,2.07
2022-10-25T07:51:22.600Z,1.90
2022-10-25T07:53:50.916Z,2.10
2022-10-25T07:56:23.167Z,2.03
2022-10-25T07:58:52.661Z,1.80
2022-10-25T08:01:22.620Z,2.07
2022-10-25T08:03:52.416Z,1.90
2022-10-25T08:06:21.191Z,2.13
2022-10-25T08:08:49.260Z,2.10
2022-10-25T08:11:17.435Z,2.03
2022-10-25T08:13:45.503Z,2.03
2022-10-25T08:16:13.558Z,2.13
2022-10-25T08:18:41.602Z,2.20
2022-10-25T08:21:11.002Z,1.90
2022-10-25T08:23:39.122Z,2.13
2022-10-25T08:26:07.635Z,2.17
2022-10-25T08:28:35.805Z,1.90
2022-10-25T08:31:04.365Z,1.97
2022-10-25T08:33:33.532Z,2.10
2022-10-25T08:36:02.212Z,1.83
2022-10-25T08:38:31.671Z,2.73
2022-10-25T08:41:06.620Z,2.23
2022-10-25T08:46:34.535Z,2.47
2022-10-25T08:49:10.703Z,2.50
2022-10-25T08:51:40.338Z,2.10
2022-10-25T08:54:23.956Z,2.53
2022-10-25T08:57:10.527Z,2.00
2022-10-25T08:59:40.848Z,2.10
2022-10-25T09:02:18.536Z,1.87
2022-10-25T09:04:46.715Z,2.10
2022-10-25T09:07:54.714Z,2.20
2022-10-25T09:10:51.634Z,2.07
2022-10-25T09:13:30.580Z,2.07
2022-10-25T09:16:05.950Z,2.00
2022-10-25T09:18:39.427Z,2.40
2022-10-25T09:21:14.786Z,2.20
2022-10-25T09:23:45.042Z,1.90
2022-10-25T09:26:19.766Z,2.10
2022-10-25T09:28:52.656Z,2.53
2022-10-25T09:31:24.269Z,2.37
2022-10-25T09:34:01.476Z,2.47
2022-10-25T09:36:37.044Z,2.40
2022-10-25T09:39:10.321Z,2.37
2022-10-25T09:41:45.059Z,2.20
2022-10-25T09:44:16.862Z,2.00
2022-10-25T09:46:46.725Z,2.40
2022-10-25T09:49:23.379Z,2.13
2022-10-25T09:51:57.473Z,1.43
2022-10-25T09:54:28.635Z,2.07
2022-10-25T09:56:58.044Z,2.00
2022-10-25T09:59:27.753Z,2.00
2022-10-25T10:01:55.940Z,1.83
2022-10-25T10:04:26.820Z,2.20
2022-10-25T10:06:58.046Z,1.90
2022-10-25T10:09:26.456Z,1.97
2022-10-25T10:11:54.543Z,2.00
2022-10-25T10:14:29.707Z,2.30
2022-10-25T10:16:58.421Z,2.00
2022-10-25T10:19:29.807Z,2.13
2022-10-25T10:21:59.487Z,2.43
2022-10-25T10:24:29.330Z,2.00
2022-10-25T10:26:58.866Z,2.13
2022-10-25T10:29:29.230Z,1.90
2022-10-25T10:32:00.249Z,2.00
2022-10-25T10:34:30.876Z,2.33
2022-10-25T10:37:08.474Z,2.23
2022-10-25T10:39:36.517Z,1.80
2022-10-25T10:42:16.225Z,1.80
2022-10-25T10:45:02.001Z,1.90
2022-10-25T10:47:33.986Z,1.60
2022-10-25T10:50:02.083Z,2.17
2022-10-25T10:52:32.711Z,1.70
2022-10-25T10:55:01.129Z,1.70
2022-10-25T10:57:33.274Z,1.60
2022-10-25T11:00:02.768Z,1.90
2022-10-25T11:02:38.937Z,2.03
2022-10-25T11:05:25.874Z,1.77
2022-10-25T11:07:56.327Z,1.67
2022-10-25T11:10:30.430Z,1.80
2022-10-25T11:13:13.502Z,1.63
2022-10-25T11:16:20.988Z,1.80
2022-10-25T11:18:59.913Z,1.93
2022-10-25T11:21:40.703Z,1.87
2022-10-25T11:24:16.141Z,2.40
2022-10-25T11:26:52.830Z,2.10
2022-10-25T11:29:32.565Z,1.80
2022-10-25T11:32:08.888Z,1.50
2022-10-25T11:34:40.651Z,1.87
2022-10-25T11:37:16.297Z,2.00
2022-10-25T11:39:51.694Z,1.70
2022-10-25T11:42:48.199Z,2.00
2022-10-25T11:45:40.982Z,1.80
2022-10-25T11:48:47.468Z,1.87
2022-10-25T11:51:22.398Z,2.43
2022-10-25T11:54:18.439Z,1.90
2022-10-25T11:56:54.675Z,2.90
2022-10-25T11:59:26.072Z,2.00
2022-10-25T12:02:03.833Z,1.60
2022-10-25T12:04:44.171Z,1.87
2022-10-25T12:07:15.032Z,1.50
2022-10-25T12:09:51.252Z,1.80
2022-10-25T12:12:20.192Z,1.60
2022-10-25T12:14:50.554Z,2.00
2022-10-25T12:17:24.189Z,1.90
2022-10-25T12:19:55.253Z,1.90
2022-10-25T12:22:25.279Z,2.00
2022-10-25T12:24:57.771Z,1.80
2022-10-25T12:27:25.854Z,2.00
2022-10-25T12:29:56.840Z,1.90
2022-10-25T12:32:28.861Z,1.50
2022-10-25T12:34:58.811Z,1.90
2022-10-25T12:37:31.513Z,1.60
2022-10-25T12:39:59.553Z,1.90
2022-10-25T12:42:30.694Z,1.93
2022-10-25T12:45:25.691Z,1.50
2022-10-25T12:48:15.682Z,1.63
2022-10-25T12:50:57.205Z,1.70
2022-10-25T12:54:16.662Z,1.80
2022-10-25T12:56:51.505Z,1.50
2022-10-25T12:59:42.895Z,2.20
2022-10-25T13:02:42.666Z,1.80
2022-10-25T13:05:56.942Z,1.70
2022-10-25T13:08:25.251Z,2.00
2022-10-25T13:10:58.748Z,1.73
2022-10-25T13:13:28.006Z,1.70
2022-10-25T13:15:58.806Z,1.83
2022-10-25T13:18:41.798Z,2.17
2022-10-25T13:21:12.217Z,1.70
2022-10-25T13:24:02.598Z,1.50
2022-10-25T13:26:50.320Z,1.73
2022-10-25T13:30:05.197Z,1.60
2022-10-25T13:32:34.158Z,1.70
2022-10-25T13:35:03.766Z,1.73
2022-10-25T13:37:45.945Z,1.80
2022-10-25T13:40:25.723Z,1.80
2022-10-25T13:43:03.172Z,1.60
2022-10-25T13:45:40.386Z,2.07
2022-10-25T13:48:26.710Z,1.87
2022-10-25T13:50:55.771Z,1.60
2022-10-25T13:53:26.948Z,1.60
2022-10-25T13:56:00.950Z,1.40
2022-10-25T13:58:58.920Z,1.57
2022-10-25T14:01:57.171Z,1.70
2022-10-25T14:04:39.290Z,1.80
2022-10-25T14:07:50.706Z,1.83
2022-10-25T14:10:25.886Z,1.87
2022-10-25T14:12:59.905Z,1.60
2022-10-25T14:15:38.515Z,1.70
2022-10-25T14:18:15.247Z,1.60
2022-10-25T14:20:46.640Z,1.60
2022-10-25T14:23:16.531Z,2.23
2022-10-25T14:25:52.137Z,1.90
2022-10-25T14:28:24.161Z,1.37
2022-10-25T14:30:55.013Z,1.70
2022-10-25T14:33:28.136Z,1.90
2022-10-25T14:35:58.683Z,1.53
2022-10-25T14:38:28.189Z,1.80
2022-10-25T14:40:58.676Z,2.70
2022-10-25T14:43:29.968Z,2.90
2022-10-25T14:46:03.313Z,3.67
2022-10-25T14:48:31.610Z,3.27
2022-10-25T14:51:04.457Z,3.70
2022-10-25T14:53:32.620Z,3.50
2022-10-25T14:56:03.285Z,2.73
2022-10-25T14:58:34.477Z,3.13
2022-10-25T15:01:03.824Z,3.30
2022-10-25T15:03:32.120Z,2.17
2022-10-25T15:06:00.216Z,2.17
2022-10-25T15:08:28.805Z,2.20
2022-10-25T15:10:58.408Z,2.03
2022-10-25T15:13:30.452Z,2.07
2022-10-25T15:16:00.226Z,1.60
2022-10-25T15:18:36.421Z,2.10
2022-10-25T15:21:10.735Z,1.83
2022-10-25T15:23:39.403Z,2.10
2022-10-25T15:26:21.966Z,1.80
2022-10-25T15:28:52.817Z,1.83
2022-10-25T15:31:24.619Z,2.00
2022-10-25T15:33:58.339Z,2.10
2022-10-25T15:36:27.843Z,1.90
2022-10-25T15:39:16.789Z,1.70
2022-10-25T15:41:45.269Z,2.00
2022-10-25T15:44:14.686Z,1.80
2022-10-25T15:46:42.794Z,2.13
2022-10-25T15:49:12.416Z,1.83
2022-10-25T15:51:41.654Z,2.03
2022-10-25T15:54:14.495Z,1.90
2022-10-25T15:56:42.718Z,2.03
2022-10-25T15:59:10.880Z,1.87
2022-10-25T16:01:42.552Z,1.70
2022-10-25T16:04:13.994Z,1.87
2022-10-25T16:06:42.189Z,2.40
2022-10-25T16:09:10.282Z,2.03
2022-10-25T16:11:39.172Z,1.90
2022-10-25T16:14:08.725Z,1.70
2022-10-25T16:16:41.144Z,2.50
2022-10-25T16:19:14.356Z,3.47
2022-10-25T16:21:42.578Z,2.57
2022-10-25T16:24:10.798Z,2.07
2022-10-25T16:26:41.593Z,1.70
2022-10-25T16:29:16.166Z,1.77
2022-10-25T16:31:44.330Z,1.57
2022-10-25T16:34:15.401Z,1.67
2022-10-25T16:36:43.738Z,1.80
2022-10-25T16:39:12.355Z,1.90
2022-10-25T16:41:41.511Z,1.80
2022-10-25T16:44:11.270Z,1.60
2022-10-25T16:46:39.532Z,1.80
2022-10-25T16:49:09.266Z,2.53
2022-10-25T16:51:39.023Z,2.00
2022-10-25T16:54:07.456Z,1.90
2022-10-25T16:56:35.555Z,2.10
2022-10-25T16:59:03.769Z,1.90
2022-10-25T17:01:33.781Z,2.43
2022-10-25T17:04:02.665Z,2.83
2022-10-25T17:06:46.221Z,2.63
2022-10-25T17:09:16.415Z,2.77
2022-10-25T17:11:44.675Z,2.83
2022-10-25T17:14:14.230Z,2.73
2022-10-25T17:16:44.522Z,2.97
2022-10-25T17:19:12.951Z,2.83
2022-10-25T17:21:40.979Z,3.10
2022-10-25T17:24:09.496Z,3.67
2022-10-25T17:26:39.501Z,2.90
2022-10-25T17:29:07.598Z,2.50
2022-10-25T17:31:35.997Z,2.13
2022-10-25T17:34:04.363Z,1.83
2022-10-25T17:36:32.650Z,2.00
2022-10-25T17:39:00.916Z,1.97
2022-10-25T17:41:29.159Z,1.97
2022-10-25T17:43:58.653Z,2.00
2022-10-25T17:46:29.082Z,2.60
2022-10-25T17:48:58.417Z,3.03
2022-10-25T17:51:26.545Z,2.90
2022-10-25T17:53:55.159Z,3.10
2022-10-25T17:56:24.326Z,2.60
2022-10-25T17:58:52.768Z,2.10
2022-10-25T18:01:23.608Z,2.50
2022-10-25T18:03:51.810Z,2.63
2022-10-25T18:08:56.730Z,2.37
2022-10-25T18:11:26.959Z,2.90
2022-10-25T18:13:56.204Z,2.83
2022-10-25T18:16:26.957Z,3.43
2022-10-25T18:18:56.046Z,2.80
2022-10-25T18:21:24.244Z,2.80
2022-10-25T18:23:55.650Z,2.30
2022-10-25T18:26:24.415Z,2.47
2022-10-25T18:28:52.569Z,2.03
2022-10-25T18:31:20.987Z,2.37
2022-10-25T18:33:50.449Z,2.30
2022-10-25T18:36:20.144Z,2.60
2022-10-25T18:38:48.418Z,3.00
2022-10-25T18:41:18.611Z,2.50
2022-10-25T18:43:46.751Z,2.50
2022-10-25T18:46:15.111Z,2.43
2022-10-25T18:48:45.115Z,2.33
2022-10-25T18:51:15.055Z,2.20
2022-10-25T18:53:43.331Z,2.40
2022-10-25T18:56:11.900Z,2.30
2022-10-25T18:58:39.944Z,2.60
2022-10-25T19:01:08.900Z,2.33
2022-10-25T19:03:37.115Z,2.30
2022-10-25T19:06:06.692Z,2.70
2022-10-25T19:08:36.279Z,2.47
2022-10-25T19:11:04.819Z,2.30
2022-10-25T19:13:32.856Z,2.57
2022-10-25T19:16:01.043Z,2.30
2022-10-25T19:18:30.110Z,2.87
2022-10-25T19:21:01.853Z,2.40
2022-10-25T19:23:29.958Z,2.80
2022-10-25T19:26:02.354Z,2.23
2022-10-25T19:28:30.467Z,2.43
2022-10-25T19:30:58.482Z,2.23
2022-10-25T19:33:26.663Z,2.50
2022-10-25T19:35:54.736Z,2.40
2022-10-25T19:38:22.884Z,2.33
2022-10-25T19:40:50.957Z,2.40
2022-10-25T19:43:20.352Z,2.47
2022-10-25T19:45:48.394Z,2.37
2022-10-25T19:48:16.443Z,2.27
2022-10-25T19:50:44.586Z,2.60
2022-10-25T19:53:12.666Z,2.10
2022-10-25T19:55:40.794Z,1.97
2022-10-25T19:58:08.870Z,2.27
2022-10-25T20:00:38.337Z,2.30
2022-10-25T20:03:24.960Z,2.00
2022-10-25T20:06:17.481Z,1.80
2022-10-25T20:09:10.008Z,2.13
2022-10-25T20:11:58.656Z,1.73
2022-10-25T20:14:46.966Z,1.70
2022-10-25T20:17:36.662Z,2.27
2022-10-25T20:20:24.979Z,1.70
2022-10-25T20:23:13.344Z,1.70
2022-10-25T20:26:09.945Z,1.73
2022-10-25T20:29:00.024Z,2.33
2022-10-25T20:31:48.374Z,1.83
2022-10-25T20:34:38.362Z,1.90
2022-10-25T20:37:26.713Z,1.93
2022-10-25T20:40:15.243Z,2.20
2022-10-25T20:43:03.650Z,2.03
2022-10-25T20:45:51.981Z,2.33
2022-10-25T20:48:40.392Z,2.13
2022-10-25T20:51:30.327Z,2.00
2022-10-25T20:54:18.820Z,2.07
2022-10-25T20:57:08.516Z,1.80
2022-10-25T20:59:56.812Z,1.83
2022-10-25T21:02:45.334Z,1.90
2022-10-25T21:05:33.644Z,1.80
2022-10-25T21:08:23.488Z,1.63
2022-10-25T21:11:13.326Z,1.93
2022-10-25T21:14:01.722Z,2.00
2022-10-25T21:16:51.037Z,1.80
2022-10-25T21:19:39.520Z,1.87
2022-10-25T21:22:27.943Z,2.00
2022-10-25T21:25:17.874Z,2.13
2022-10-25T21:28:06.683Z,2.00
2022-10-25T21:30:55.126Z,2.30
2022-10-25T21:33:49.802Z,1.83
2022-10-25T21:36:39.510Z,2.10
2022-10-25T21:39:27.980Z,1.50
2022-10-25T21:42:17.669Z,1.93
2022-10-25T21:45:06.914Z,1.87
2022-10-25T21:47:55.382Z,1.77
2022-10-25T21:50:43.695Z,2.07
2022-10-25T21:53:32.001Z,1.90
2022-10-25T21:56:23.136Z,1.90
2022-10-25T21:59:12.846Z,2.10
2022-10-25T22:02:01.279Z,1.90
2022-10-25T22:04:49.721Z,1.70
2022-10-25T22:07:38.058Z,1.90
2022-10-25T22:10:26.463Z,2.00
2022-10-25T22:13:14.819Z,2.10
2022-10-25T22:16:06.341Z,2.03
2022-10-25T22:18:57.600Z,1.80
2022-10-25T22:21:46.392Z,2.13
2022-10-25T22:24:34.723Z,1.80
2022-10-25T22:27:23.058Z,1.60
2022-10-25T22:30:13.090Z,1.90
2022-10-25T22:33:02.950Z,1.80
2022-10-25T22:35:51.468Z,2.10
2022-10-25T22:38:39.880Z,1.70
2022-10-25T22:41:29.735Z,1.70
2022-10-25T22:44:18.293Z,1.90
2022-10-25T22:47:07.010Z,2.40
2022-10-25T22:49:56.708Z,1.70
2022-10-25T22:55:38.277Z,2.30
2022-10-25T22:58:27.104Z,1.77
2022-10-25T23:01:16.624Z,1.63
2022-10-25T23:04:07.281Z,1.60
2022-10-25T23:06:57.024Z,1.70
2022-10-25T23:09:45.426Z,1.60
2022-10-25T23:12:33.874Z,1.70
2022-10-25T23:15:22.462Z,1.57
2022-10-25T23:18:10.873Z,1.90
2022-10-25T23:21:00.379Z,1.50
2022-10-25T23:23:50.339Z,1.70
2022-10-25T23:26:38.820Z,1.80
2022-10-25T23:29:27.316Z,1.77
2022-10-25T23:32:15.627Z,2.03
2022-10-25T23:35:04.148Z,1.50
2022-10-25T23:37:52.452Z,1.97
2022-10-25T23:40:45.987Z,1.63
2022-10-25T23:43:34.542Z,1.77
2022-10-25T23:46:22.966Z,1.40
2022-10-25T23:49:11.326Z,1.43
2022-10-25T23:51:59.649Z,1.70
2022-10-25T23:54:48.010Z,2.03
2022-10-25T23:57:37.723Z,1.60
